Brown Mountain Beach, North Carolina
Current Conditions -  °F | °C
As of 11:55 AM on Saturday 25 Oct 2014 (Local Time) from KMRN Reporting Station
Clear Clear  
Wind Chill: 64°   Ceiling: Unl
Heat Index: 64°   Visibility: 10mi
Dew Point: 40°   Wind: 3mph
Humidity: 42%   Direction: 190°S
Pressure: 30.08"   Gusts: NA
Location:  35.9726°N, 81.5331°W
Report Text: KMRN 251555Z AUTO 19003KT 10SM CLR 18/05 A3008 RMK AO2 T01750045
Loading
Personal Weather Stations






























Interactive Weather Map
Tropical Storm Tracking
New forecast layout! Learn more

10-Day Weather Forecast

Advertisements
Track Severe Weather on mobile